createdAt,value
2022-08-26T00:00:15.829Z,19.00
2022-08-26T00:01:16.625Z,16.00
2022-08-26T00:02:15.689Z,20.50
2022-08-26T00:03:15.566Z,19.10
2022-08-26T00:04:15.733Z,21.30
2022-08-26T00:05:15.727Z,17.90
2022-08-26T00:06:15.584Z,17.80
2022-08-26T00:07:15.685Z,22.50
2022-08-26T00:08:15.542Z,18.60
2022-08-26T00:09:16.048Z,17.60
2022-08-26T00:10:15.527Z,17.30
2022-08-26T00:11:15.514Z,22.60
2022-08-26T00:12:16.616Z,17.90
2022-08-26T00:13:15.411Z,16.50
2022-08-26T00:14:15.542Z,15.80
2022-08-26T00:15:15.518Z,16.30
2022-08-26T00:16:15.442Z,18.50
2022-08-26T00:17:15.387Z,18.80
2022-08-26T00:18:21.738Z,21.50
2022-08-26T00:19:15.455Z,19.60
2022-08-26T00:20:15.571Z,19.80
2022-08-26T00:21:15.623Z,17.00
2022-08-26T00:22:21.506Z,17.30
2022-08-26T00:23:15.419Z,21.00
2022-08-26T00:24:15.427Z,20.70
2022-08-26T00:25:15.281Z,16.60
2022-08-26T00:26:15.271Z,16.80
2022-08-26T00:27:15.360Z,19.70
2022-08-26T00:28:15.348Z,16.30
2022-08-26T00:29:15.471Z,15.00
2022-08-26T00:30:15.223Z,19.60
2022-08-26T00:31:15.345Z,18.40
2022-08-26T00:32:15.514Z,17.30
2022-08-26T00:33:15.892Z,20.50
2022-08-26T00:34:15.572Z,21.60
2022-08-26T00:35:15.182Z,21.60
2022-08-26T00:36:20.077Z,22.60
2022-08-26T00:37:16.393Z,20.30
2022-08-26T00:38:16.228Z,22.20
2022-08-26T00:39:15.245Z,22.40
2022-08-26T00:40:15.165Z,18.90
2022-08-26T00:41:15.167Z,19.80
2022-08-26T00:42:15.112Z,18.20
2022-08-26T00:43:15.107Z,22.50
2022-08-26T00:44:15.174Z,27.60
2022-08-26T00:45:15.056Z,20.00
2022-08-26T00:46:15.256Z,23.70
2022-08-26T00:47:16.104Z,24.10
2022-08-26T00:48:15.012Z,25.00
2022-08-26T00:49:15.101Z,19.60
2022-08-26T00:50:15.010Z,25.10
2022-08-26T00:51:14.912Z,23.90
2022-08-26T00:52:15.312Z,22.30
2022-08-26T00:53:14.970Z,23.50
2022-08-26T00:54:15.044Z,24.20
2022-08-26T00:55:19.712Z,21.80
2022-08-26T00:56:16.938Z,18.20
2022-08-26T00:57:16.440Z,24.60
2022-08-26T00:58:15.121Z,20.10
2022-08-26T00:59:14.917Z,17.80
2022-08-26T01:00:15.033Z,19.70
2022-08-26T01:01:15.337Z,23.40
2022-08-26T01:02:21.201Z,26.80
2022-08-26T01:03:14.997Z,22.00
2022-08-26T01:04:14.850Z,25.40
2022-08-26T01:11:41.253Z,23.40
2022-08-26T01:12:08.865Z,21.10
2022-08-26T01:13:08.970Z,19.80
2022-08-26T01:14:08.865Z,23.20
2022-08-26T01:15:08.862Z,22.10
2022-08-26T01:16:08.866Z,21.40
2022-08-26T01:17:08.567Z,18.70
2022-08-26T01:18:08.677Z,22.20
2022-08-26T01:19:08.547Z,27.60
2022-08-26T01:20:08.601Z,25.90
2022-08-26T01:21:08.566Z,22.50
2022-08-26T01:22:08.546Z,25.70
2022-08-26T01:23:08.948Z,22.60
2022-08-26T01:24:08.523Z,25.30
2022-08-26T01:25:08.545Z,23.30
2022-08-26T01:26:08.522Z,25.80
2022-08-26T01:27:09.526Z,24.80
2022-08-26T01:28:08.475Z,28.50
2022-08-26T01:29:08.474Z,28.30
2022-08-26T01:30:08.479Z,23.70
2022-08-26T01:31:08.457Z,24.00
2022-08-26T01:32:08.453Z,24.30
2022-08-26T01:33:08.668Z,19.20
2022-08-26T01:34:09.041Z,26.70
2022-08-26T01:35:08.395Z,21.40
2022-08-26T01:36:08.427Z,26.70
2022-08-26T01:37:08.379Z,28.70
2022-08-26T01:38:08.401Z,28.10
2022-08-26T01:39:08.407Z,29.10
2022-08-26T01:40:08.449Z,30.70
2022-08-26T01:41:12.456Z,27.80
2022-08-26T01:42:10.404Z,34.20
2022-08-26T01:43:08.590Z,30.90
2022-08-26T01:44:09.737Z,22.80
2022-08-26T01:45:08.297Z,24.50
2022-08-26T01:46:08.373Z,26.90
2022-08-26T01:47:08.304Z,32.00
2022-08-26T01:48:08.240Z,36.60
2022-08-26T01:49:08.255Z,35.50
2022-08-26T01:50:08.255Z,27.10
2022-08-26T01:51:08.224Z,29.70
2022-08-26T01:52:08.225Z,30.10
2022-08-26T01:53:08.559Z,26.10
2022-08-26T01:54:08.236Z,23.40
2022-08-26T01:55:08.210Z,27.50
2022-08-26T01:56:08.161Z,24.70
2022-08-26T01:57:08.197Z,31.60
2022-08-26T01:58:08.264Z,27.10
2022-08-26T01:59:08.212Z,34.50
2022-08-26T02:00:08.148Z,30.30
2022-08-26T02:01:08.184Z,23.50
2022-08-26T02:02:08.104Z,29.20
2022-08-26T02:03:08.295Z,28.80
2022-08-26T02:04:08.124Z,25.50
2022-08-26T02:05:08.077Z,30.80
2022-08-26T02:06:09.336Z,28.70
2022-08-26T02:07:08.036Z,31.90
2022-08-26T02:08:08.034Z,24.00
2022-08-26T02:09:08.090Z,34.00
2022-08-26T02:10:08.044Z,32.20
2022-08-26T02:11:08.045Z,27.90
2022-08-26T02:12:08.025Z,24.40
2022-08-26T02:13:08.093Z,30.50
2022-08-26T02:14:07.972Z,31.30
2022-08-26T02:15:08.024Z,32.00
2022-08-26T02:16:08.011Z,30.20
2022-08-26T02:17:07.917Z,31.10
2022-08-26T02:18:07.958Z,31.20
2022-08-26T02:19:08.975Z,30.70
2022-08-26T02:20:13.389Z,30.00
2022-08-26T02:21:08.901Z,28.70
2022-08-26T02:22:07.905Z,25.90
2022-08-26T02:23:08.001Z,34.00
2022-08-26T02:24:07.833Z,31.80
2022-08-26T02:25:07.915Z,32.30
2022-08-26T02:26:07.887Z,25.10
2022-08-26T02:27:07.866Z,35.70
2022-08-26T02:28:07.821Z,31.70
2022-08-26T02:29:07.838Z,27.90
2022-08-26T02:30:07.842Z,27.00
2022-08-26T02:31:08.023Z,26.70
2022-08-26T02:32:07.809Z,26.80
2022-08-26T02:33:07.987Z,33.20
2022-08-26T02:34:07.738Z,30.00
2022-08-26T02:35:07.747Z,26.40
2022-08-26T02:36:07.813Z,27.20
2022-08-26T02:37:07.726Z,38.30
2022-08-26T02:38:10.083Z,27.50
2022-08-26T02:39:07.690Z,32.00
2022-08-26T02:40:07.713Z,31.90
2022-08-26T02:41:08.007Z,28.90
2022-08-26T02:42:07.723Z,26.00
2022-08-26T02:43:08.574Z,29.20
2022-08-26T02:44:07.626Z,30.70
2022-08-26T02:45:07.638Z,43.80
2022-08-26T02:46:07.627Z,29.90
2022-08-26T02:47:07.731Z,29.50
2022-08-26T02:48:07.595Z,26.90
2022-08-26T02:49:07.618Z,26.80
2022-08-26T02:50:07.582Z,36.10
2022-08-26T02:51:07.594Z,26.80
2022-08-26T02:52:07.579Z,30.10
2022-08-26T02:53:07.718Z,26.30
2022-08-26T02:54:07.544Z,32.60
2022-08-26T02:55:07.547Z,27.00
2022-08-26T02:56:07.541Z,23.20
2022-08-26T02:57:07.503Z,31.00
2022-08-26T02:58:07.485Z,27.00
2022-08-26T02:59:07.507Z,27.10
2022-08-26T03:00:53.014Z,30.60
2022-08-26T03:01:08.813Z,28.00
2022-08-26T03:02:07.744Z,34.50
2022-08-26T03:03:07.798Z,32.40
2022-08-26T03:04:07.707Z,30.00
2022-08-26T03:05:07.805Z,30.20
2022-08-26T03:06:07.519Z,33.70
2022-08-26T03:07:07.731Z,29.50
2022-08-26T03:08:07.765Z,33.30
2022-08-26T03:09:07.657Z,27.60
2022-08-26T03:10:08.429Z,32.20
2022-08-26T03:11:07.586Z,30.80
2022-08-26T03:12:07.760Z,29.70
2022-08-26T03:13:07.895Z,28.00
2022-08-26T03:14:07.552Z,25.70
2022-08-26T03:15:17.437Z,30.30
2022-08-26T03:16:08.699Z,26.80
2022-08-26T03:17:07.886Z,35.40
2022-08-26T03:18:07.584Z,40.20
2022-08-26T03:19:07.560Z,30.00
2022-08-26T03:20:07.564Z,27.50
2022-08-26T03:21:07.621Z,36.10
2022-08-26T03:22:07.592Z,26.50
2022-08-26T03:23:07.850Z,33.10
2022-08-26T03:24:07.356Z,35.40
2022-08-26T03:25:07.471Z,29.80
2022-08-26T03:26:07.700Z,28.10
2022-08-26T03:27:07.656Z,36.80
2022-08-26T03:28:07.723Z,34.40
2022-08-26T03:29:07.433Z,29.10
2022-08-26T03:30:07.708Z,31.30
2022-08-26T03:31:08.288Z,30.40
2022-08-26T03:32:07.932Z,24.20
2022-08-26T03:33:07.948Z,30.80
2022-08-26T03:34:07.292Z,36.30
2022-08-26T03:35:07.448Z,34.20
2022-08-26T03:53:39.489Z,29.20
2022-08-26T04:15:35.894Z,29.60
2022-08-26T04:28:23.559Z,27.80
2022-08-26T04:53:11.442Z,36.50
2022-08-26T05:05:31.633Z,33.30
